Time;durP1;ratioP1;P1;durP2;ratioP2;P2;SDS_P1;SDS_P2;PMS_P1;PMS_P2;Temp;Humidity;BMP_temperature;BMP_pressure;BME280_temperature;BME280_humidity;BME280_pressure;Samples;Min_cycle;Max_cycle;Signal;HPM_P1;HPM_P2
2022/09/04 00:02:16;;;;;;;10.07;9.27;;;;;;;;;;5037916;28;25001;-48
2022/09/04 00:05:00;;;;;;;9.55;8.85;;;;;;;;;;5047598;28;24419;-46
2022/09/04 00:07:45;;;;;;;8.82;8.13;;;;;;;;;;5037339;28;24432;-48
2022/09/04 00:10:16;;;;;;;9.10;8.40;;;;;;;;;;5034693;28;24504;-47
2022/09/04 00:13:00;;;;;;;9.55;8.90;;;;;;;;;;5042336;28;24422;-48
2022/09/04 00:15:30;;;;;;;9.50;8.60;;;;;;;;;;5035700;28;24436;-47
2022/09/04 00:17:58;;;;;;;9.40;8.70;;;;;;;;;;5040745;28;24411;-47
2022/09/04 00:20:36;;;;;;;10.00;9.20;;;;;;;;;;5039640;28;24791;-47
2022/09/04 00:23:21;;;;;;;10.20;9.40;;;;;;;;;;5040724;28;24429;-48
2022/09/04 00:25:46;;;;;;;9.48;8.77;;;;;;;;;;5029190;28;24422;-47
2022/09/04 00:28:17;;;;;;;9.13;8.32;;;;;;;;;;5043357;28;24427;-47
2022/09/04 00:30:49;;;;;;;9.77;9.00;;;;;;;;;;5043631;28;24423;-47
2022/09/04 00:33:20;;;;;;;9.85;9.05;;;;;;;;;;5043323;28;24419;-47
2022/09/04 00:35:48;;;;;;;10.40;9.60;;;;;;;;;;5041047;28;24440;-47
2022/09/04 00:38:20;;;;;;;10.00;9.20;;;;;;;;;;5038007;28;24430;-47
2022/09/04 00:41:06;;;;;;;9.77;9.07;;;;;;;;;;5042859;28;24968;-44
2022/09/04 00:43:43;;;;;;;9.70;9.00;;;;;;;;;;5044650;28;24497;-46
2022/09/04 00:46:27;;;;;;;10.70;9.90;;;;;;;;;;5034902;28;24961;-46
2022/09/04 00:49:10;;;;;;;9.70;8.98;;;;;;;;;;5043736;28;24434;-46
2022/09/04 00:51:54;;;;;;;9.77;8.97;;;;;;;;;;5040942;28;24431;-47
2022/09/04 00:54:38;;;;;;;9.30;8.70;;;;;;;;;;5032551;28;24446;-47
2022/09/04 00:57:18;;;;;;;9.38;8.57;;;;;;;;;;5037281;28;24424;-47
2022/09/04 00:59:54;;;;;;;9.43;8.73;;;;;;;;;;5032380;28;24937;-46
2022/09/04 01:02:19;;;;;;;9.70;8.90;;;;;;;;;;5043085;28;24481;-47
2022/09/04 01:05:03;;;;;;;8.77;8.05;;;;;;;;;;5043526;28;24485;-48
2022/09/04 01:07:37;;;;;;;9.13;8.43;;;;;;;;;;5036505;28;24661;-48
2022/09/04 01:10:03;;;;;;;8.18;7.53;;;;;;;;;;5036375;28;24439;-48
2022/09/04 01:12:50;;;;;;;8.90;8.20;;;;;;;;;;5041229;28;24439;-46
2022/09/04 01:15:21;;;;;;;8.85;8.15;;;;;;;;;;5031439;28;24427;-47
2022/09/04 01:18:05;;;;;;;8.60;7.90;;;;;;;;;;5039715;28;24416;-47
2022/09/04 01:20:50;;;;;;;8.65;7.95;;;;;;;;;;5041965;28;24427;-47
2022/09/04 01:23:34;;;;;;;8.85;8.15;;;;;;;;;;5028948;28;24435;-47
2022/09/04 01:26:05;;;;;;;8.75;8.05;;;;;;;;;;5043727;28;24473;-48
2022/09/04 01:28:51;;;;;;;8.73;7.97;;;;;;;;;;5043175;28;24427;-46
2022/09/04 01:31:25;;;;;;;8.40;7.70;;;;;;;;;;5044817;28;24425;-47
2022/09/04 01:33:53;;;;;;;9.00;8.20;;;;;;;;;;5027826;28;24517;-46
2022/09/04 01:36:26;;;;;;;8.50;7.80;;;;;;;;;;5032572;28;24774;-46
2022/09/04 01:38:54;;;;;;;7.97;7.38;;;;;;;;;;5036848;28;24477;-46
2022/09/04 01:41:34;;;;;;;7.60;7.00;;;;;;;;;;5032201;28;25012;-47
2022/09/04 01:43:59;;;;;;;7.72;7.10;;;;;;;;;;5042592;28;24526;-46
2022/09/04 01:46:36;;;;;;;7.93;7.38;;;;;;;;;;5039000;28;24784;-46
2022/09/04 01:49:01;;;;;;;8.07;7.47;;;;;;;;;;5031544;28;24438;-46
2022/09/04 01:51:38;;;;;;;7.15;6.65;;;;;;;;;;5037875;28;24435;-46
2022/09/04 01:54:22;;;;;;;7.05;6.55;;;;;;;;;;5041838;28;24430;-46
2022/09/04 01:56:54;;;;;;;7.82;7.22;;;;;;;;;;5031913;28;24421;-45
2022/09/04 01:59:24;;;;;;;6.70;6.20;;;;;;;;;;5032086;28;24458;-46
2022/09/04 02:01:59;;;;;;;6.93;6.32;;;;;;;;;;5039354;28;24987;-46
2022/09/04 02:04:30;;;;;;;6.97;6.38;;;;;;;;;;5045272;28;25064;-47
2022/09/04 02:07:00;;;;;;;7.50;7.00;;;;;;;;;;5040728;28;24436;-46
2022/09/04 02:09:35;;;;;;;6.80;6.20;;;;;;;;;;5039722;28;24435;-46
2022/09/04 02:12:18;;;;;;;6.90;6.40;;;;;;;;;;5031689;28;24427;-47
2022/09/04 02:14:53;;;;;;;7.30;6.80;;;;;;;;;;5030795;28;24432;-45
2022/09/04 02:17:33;;;;;;;7.03;6.43;;;;;;;;;;5034456;28;25049;-46
2022/09/04 02:19:58;;;;;;;6.85;6.25;;;;;;;;;;5032594;28;24890;-45
2022/09/04 02:22:32;;;;;;;7.30;6.80;;;;;;;;;;5036785;28;24469;-45
2022/09/04 02:25:09;;;;;;;7.18;6.68;;;;;;;;;;5035451;28;24477;-46
2022/09/04 02:27:37;;;;;;;6.70;6.20;;;;;;;;;;5037697;28;24786;-47
2022/09/04 02:30:09;;;;;;;7.15;6.57;;;;;;;;;;5038132;28;24426;-47
2022/09/04 02:32:38;;;;;;;6.40;5.90;;;;;;;;;;5031811;28;24539;-47
2022/09/04 02:35:39;;;;;;;6.80;6.20;;;;;;;;;;5040650;28;24535;-47
2022/09/04 02:38:28;;;;;;;7.00;6.30;;;;;;;;;;5037149;28;24431;-47
2022/09/04 02:40:53;;;;;;;6.50;6.00;;;;;;;;;;5032104;28;24461;-47
2022/09/04 02:43:21;;;;;;;6.45;5.95;;;;;;;;;;5030434;28;24456;-46
2022/09/04 02:45:49;;;;;;;6.55;6.05;;;;;;;;;;5043591;28;24534;-45
2022/09/04 02:48:18;;;;;;;6.60;6.10;;;;;;;;;;5035452;28;24430;-45
2022/09/04 02:51:02;;;;;;;6.83;6.33;;;;;;;;;;5025373;28;24565;-45
2022/09/04 02:53:48;;;;;;;6.30;5.80;;;;;;;;;;5028932;28;24450;-46
2022/09/04 02:56:26;;;;;;;6.50;6.00;;;;;;;;;;5030016;28;24424;-46
2022/09/04 02:59:10;;;;;;;6.72;6.13;;;;;;;;;;5032835;28;24954;-46
2022/09/04 03:01:35;;;;;;;6.40;5.90;;;;;;;;;;5033098;28;24485;-47
2022/09/04 03:04:01;;;;;;;6.50;6.00;;;;;;;;;;5035345;28;24408;-46
2022/09/04 03:06:40;;;;;;;6.85;6.25;;;;;;;;;;5038752;28;24435;-47
2022/09/04 03:09:09;;;;;;;6.28;5.85;;;;;;;;;;5040956;28;25203;-46
2022/09/04 03:11:37;;;;;;;6.47;5.97;;;;;;;;;;5032498;28;24442;-47
2022/09/04 03:14:06;;;;;;;6.85;6.35;;;;;;;;;;5032684;28;24435;-47
2022/09/04 03:16:35;;;;;;;6.88;6.30;;;;;;;;;;5037818;28;24422;-47
2022/09/04 03:19:19;;;;;;;7.70;7.10;;;;;;;;;;5038387;28;24501;-47
2022/09/04 03:21:49;;;;;;;6.83;6.33;;;;;;;;;;5039742;28;24463;-46
2022/09/04 03:24:25;;;;;;;7.10;6.50;;;;;;;;;;5038123;28;24428;-47
2022/09/04 03:26:52;;;;;;;6.63;6.13;;;;;;;;;;5034708;28;24460;-45
2022/09/04 03:29:25;;;;;;;6.75;6.25;;;;;;;;;;5037186;28;25149;-46
2022/09/04 03:32:10;;;;;;;7.35;6.20;;;;;;;;;;5038885;28;24427;-46
2022/09/04 03:34:42;;;;;;;6.70;6.10;;;;;;;;;;5041404;28;24447;-46
2022/09/04 03:37:27;;;;;;;7.00;6.50;;;;;;;;;;5044558;28;24417;-46
2022/09/04 03:40:09;;;;;;;6.80;6.20;;;;;;;;;;5039223;28;24444;-46
2022/09/04 03:42:42;;;;;;;7.25;6.65;;;;;;;;;;5039302;28;25001;-47
2022/09/04 03:45:08;;;;;;;8.30;7.60;;;;;;;;;;5038444;28;24542;-46
2022/09/04 03:47:53;;;;;;;7.00;6.50;;;;;;;;;;5034210;28;24573;-46
2022/09/04 03:50:34;;;;;;;6.45;5.95;;;;;;;;;;5043282;28;24431;-47
2022/09/04 03:53:08;;;;;;;6.90;6.30;;;;;;;;;;5029824;28;24434;-47
2022/09/04 03:55:43;;;;;;;7.30;6.70;;;;;;;;;;5040435;28;24435;-46
2022/09/04 03:58:08;;;;;;;7.27;6.60;;;;;;;;;;5034446;28;24974;-46
2022/09/04 04:01:00;;;;;;;6.80;6.30;;;;;;;;;;5043253;28;25027;-46
2022/09/04 04:03:27;;;;;;;6.72;6.13;;;;;;;;;;5032838;28;24436;-46
2022/09/04 04:06:00;;;;;;;7.10;6.50;;;;;;;;;;5036660;28;24485;-47
2022/09/04 04:08:55;;;;;;;6.50;6.00;;;;;;;;;;5047412;28;24395;-47
2022/09/04 04:11:32;;;;;;;6.28;5.78;;;;;;;;;;5039696;28;24466;-47
2022/09/04 04:14:16;;;;;;;6.80;6.20;;;;;;;;;;5031395;28;24459;-46
2022/09/04 04:16:43;;;;;;;7.05;6.45;;;;;;;;;;5033685;28;24450;-47
2022/09/04 04:19:20;;;;;;;7.43;6.82;;;;;;;;;;5029688;28;24427;-47
2022/09/04 04:22:01;;;;;;;6.90;6.30;;;;;;;;;;5030852;28;24432;-47
2022/09/04 04:24:46;;;;;;;6.80;6.30;;;;;;;;;;5031235;28;24514;-47
2022/09/04 04:27:20;;;;;;;6.40;6.00;;;;;;;;;;5045116;28;24488;-47
2022/09/04 04:29:54;;;;;;;7.30;6.60;;;;;;;;;;5031202;28;24423;-47
2022/09/04 04:32:40;;;;;;;6.97;6.43;;;;;;;;;;5038980;28;24517;-47
2022/09/04 04:35:11;;;;;;;7.10;6.60;;;;;;;;;;5036391;28;24444;-48
2022/09/04 04:37:42;;;;;;;7.10;6.50;;;;;;;;;;5031401;28;24428;-48
2022/09/04 04:40:31;;;;;;;7.25;6.65;;;;;;;;;;5041125;28;24663;-45
2022/09/04 04:42:56;;;;;;;6.97;6.38;;;;;;;;;;5027740;28;24395;-46
2022/09/04 04:45:51;;;;;;;7.20;6.60;;;;;;;;;;5023480;28;24424;-46
2022/09/04 04:48:35;;;;;;;6.80;6.30;;;;;;;;;;5033954;28;25179;-47
2022/09/04 04:51:06;;;;;;;7.03;6.43;;;;;;;;;;5029220;28;24462;-47
2022/09/04 04:53:50;;;;;;;7.00;6.50;;;;;;;;;;5030000;28;24526;-47
2022/09/04 04:56:25;;;;;;;6.85;6.25;;;;;;;;;;5031975;28;24522;-45
2022/09/04 04:59:02;;;;;;;7.80;7.05;;;;;;;;;;5043849;28;24419;-45
2022/09/04 05:01:34;;;;;;;7.38;6.68;;;;;;;;;;5029954;28;24400;-46
2022/09/04 05:04:08;;;;;;;7.10;6.50;;;;;;;;;;5050640;28;24423;-46
2022/09/04 05:06:51;;;;;;;6.40;5.90;;;;;;;;;;5033695;28;24420;-47
2022/09/04 05:09:34;;;;;;;6.60;6.10;;;;;;;;;;5048006;28;24431;-47
2022/09/04 05:12:15;;;;;;;6.68;6.10;;;;;;;;;;5030161;28;24466;-46
2022/09/04 05:14:43;;;;;;;6.63;6.13;;;;;;;;;;5033857;28;24431;-46
2022/09/04 05:17:26;;;;;;;7.05;6.45;;;;;;;;;;5042606;28;24793;-47
2022/09/04 05:19:54;;;;;;;6.90;6.30;;;;;;;;;;5037449;28;24463;-46
2022/09/04 05:22:19;;;;;;;7.30;6.70;;;;;;;;;;5047457;28;24416;-46
2022/09/04 05:24:51;;;;;;;7.70;7.10;;;;;;;;;;5032548;28;24438;-46
2022/09/04 05:27:29;;;;;;;6.80;6.20;;;;;;;;;;5043355;28;24579;-47
2022/09/04 05:29:59;;;;;;;6.68;6.18;;;;;;;;;;5053195;28;24421;-46
2022/09/04 05:32:29;;;;;;;7.20;6.53;;;;;;;;;;5046610;28;24607;-47
2022/09/04 05:34:58;;;;;;;6.70;6.10;;;;;;;;;;5034948;28;24588;-46
2022/09/04 05:37:31;;;;;;;6.93;6.32;;;;;;;;;;5044794;28;24418;-46
2022/09/04 05:40:02;;;;;;;6.30;5.70;;;;;;;;;;5026933;28;24436;-46
2022/09/04 05:42:40;;;;;;;6.80;6.30;;;;;;;;;;5034165;28;24423;-47
2022/09/04 05:45:24;;;;;;;6.57;5.97;;;;;;;;;;5040456;28;24431;-46
2022/09/04 05:47:49;;;;;;;6.40;5.90;;;;;;;;;;5034146;28;24538;-48
2022/09/04 05:50:24;;;;;;;6.80;6.20;;;;;;;;;;5041990;28;24462;-47
2022/09/04 05:53:02;;;;;;;6.63;6.10;;;;;;;;;;5031458;28;24428;-48
2022/09/04 05:55:34;;;;;;;6.72;6.22;;;;;;;;;;5031178;28;24518;-47
2022/09/04 05:58:09;;;;;;;6.80;6.20;;;;;;;;;;5031447;28;24511;-45
2022/09/04 06:00:54;;;;;;;6.35;5.85;;;;;;;;;;5039529;28;24480;-45
2022/09/04 06:03:40;;;;;;;6.30;5.90;;;;;;;;;;5034896;28;24435;-46
2022/09/04 06:06:29;;;;;;;6.73;6.23;;;;;;;;;;5035151;28;24458;-48
2022/09/04 06:09:13;;;;;;;6.30;5.78;;;;;;;;;;5034987;28;24506;-47
2022/09/04 06:11:38;;;;;;;7.38;6.78;;;;;;;;;;5027772;28;24965;-47
2022/09/04 06:14:18;;;;;;;6.53;6.03;;;;;;;;;;5032436;28;24988;-46
2022/09/04 06:16:53;;;;;;;6.47;5.97;;;;;;;;;;5033065;28;25122;-45
2022/09/04 06:19:37;;;;;;;6.78;6.28;;;;;;;;;;5035783;28;24424;-46
2022/09/04 06:22:10;;;;;;;6.60;6.10;;;;;;;;;;5035087;28;24774;-46
2022/09/04 06:25:04;;;;;;;7.40;6.80;;;;;;;;;;5034498;28;24479;-46
2022/09/04 06:27:48;;;;;;;7.40;6.80;;;;;;;;;;5036122;28;24982;-46
2022/09/04 06:30:14;;;;;;;6.60;6.10;;;;;;;;;;5037109;28;24432;-48
2022/09/04 06:32:56;;;;;;;7.07;6.47;;;;;;;;;;5036934;28;24435;-46
2022/09/04 06:35:25;;;;;;;7.30;6.70;;;;;;;;;;5033948;28;24465;-46
2022/09/04 06:38:01;;;;;;;7.20;6.70;;;;;;;;;;5031665;28;24418;-46
2022/09/04 06:40:37;;;;;;;6.95;6.45;;;;;;;;;;5033267;28;24431;-47
2022/09/04 06:43:16;;;;;;;6.03;5.53;;;;;;;;;;5046426;28;24543;-46
2022/09/04 06:45:57;;;;;;;6.10;5.70;;;;;;;;;;5049199;28;24430;-47
2022/09/04 06:48:31;;;;;;;6.00;5.60;;;;;;;;;;5060689;28;24422;-48
2022/09/04 06:51:11;;;;;;;6.73;6.13;;;;;;;;;;5043182;28;24422;-47
2022/09/04 06:53:55;;;;;;;6.57;5.97;;;;;;;;;;5030199;28;24448;-47
2022/09/04 06:56:39;;;;;;;7.00;6.50;;;;;;;;;;5040148;28;24432;-47
2022/09/04 06:59:23;;;;;;;6.07;5.57;;;;;;;;;;5032244;28;24457;-49
2022/09/04 07:01:52;;;;;;;6.82;6.32;;;;;;;;;;5038772;28;24424;-46
2022/09/04 07:04:34;;;;;;;6.47;5.97;;;;;;;;;;5037732;28;24550;-47
2022/09/04 07:07:11;;;;;;;6.30;5.80;;;;;;;;;;5034502;28;24438;-47
2022/09/04 07:09:39;;;;;;;6.50;6.00;;;;;;;;;;5045687;28;24964;-47
2022/09/04 07:12:23;;;;;;;6.07;5.68;;;;;;;;;;5033529;28;24571;-47
2022/09/04 07:15:08;;;;;;;5.80;5.30;;;;;;;;;;5031118;28;24542;-48
2022/09/04 07:17:35;;;;;;;5.95;5.55;;;;;;;;;;5034522;28;24423;-48
2022/09/04 07:20:11;;;;;;;5.97;5.47;;;;;;;;;;5039607;28;24424;-48
2022/09/04 07:22:55;;;;;;;5.57;5.18;;;;;;;;;;5036867;28;24413;-48
2022/09/04 07:25:22;;;;;;;5.90;5.50;;;;;;;;;;5031993;28;24496;-50
2022/09/04 07:27:54;;;;;;;6.30;5.78;;;;;;;;;;5036121;28;24534;-48
2022/09/04 07:30:21;;;;;;;6.20;5.70;;;;;;;;;;5028815;28;24428;-48
2022/09/04 07:32:49;;;;;;;6.05;5.60;;;;;;;;;;5030100;28;24410;-48
2022/09/04 07:35:35;;;;;;;6.25;5.85;;;;;;;;;;5028909;28;24535;-47
2022/09/04 07:38:19;;;;;;;6.80;6.30;;;;;;;;;;5048770;28;24395;-47
2022/09/04 07:40:52;;;;;;;5.93;5.53;;;;;;;;;;5048713;28;24407;-47
2022/09/04 07:43:38;;;;;;;5.95;5.45;;;;;;;;;;5048531;28;24503;-47
2022/09/04 07:46:08;;;;;;;6.78;6.20;;;;;;;;;;5046307;28;24426;-48
2022/09/04 07:48:37;;;;;;;6.72;6.13;;;;;;;;;;5028647;28;24419;-48
2022/09/04 07:51:09;;;;;;;6.32;5.90;;;;;;;;;;5028949;28;24423;-47
2022/09/04 07:53:43;;;;;;;6.47;5.97;;;;;;;;;;5028234;28;24483;-47
2022/09/04 07:56:21;;;;;;;5.80;5.30;;;;;;;;;;5028421;28;24922;-47
2022/09/04 07:59:08;;;;;;;5.97;5.47;;;;;;;;;;5028178;28;24527;-47
2022/09/04 08:01:33;;;;;;;6.00;5.60;;;;;;;;;;5028148;28;24419;-47
2022/09/04 08:04:20;;;;;;;6.65;6.05;;;;;;;;;;5028218;28;24419;-47
2022/09/04 08:06:51;;;;;;;6.60;5.90;;;;;;;;;;5027355;28;24396;-49
2022/09/04 08:09:16;;;;;;;5.60;5.20;;;;;;;;;;5031551;28;24431;-48
2022/09/04 08:11:53;;;;;;;5.80;5.30;;;;;;;;;;5048325;28;24387;-47
2022/09/04 08:14:21;;;;;;;6.45;5.75;;;;;;;;;;5046566;28;24434;-47
2022/09/04 08:16:55;;;;;;;6.13;5.53;;;;;;;;;;5040164;28;24507;-46
2022/09/04 08:19:28;;;;;;;5.90;5.50;;;;;;;;;;5030495;28;24420;-47
2022/09/04 08:21:54;;;;;;;5.78;5.38;;;;;;;;;;5041912;28;24412;-46
2022/09/04 08:24:40;;;;;;;6.20;5.70;;;;;;;;;;5048016;28;24415;-46
2022/09/04 08:27:14;;;;;;;5.80;5.30;;;;;;;;;;5047427;28;24480;-46
2022/09/04 08:29:42;;;;;;;6.00;5.50;;;;;;;;;;5047624;28;24493;-47
2022/09/04 08:32:26;;;;;;;5.87;5.37;;;;;;;;;;5048020;28;24402;-46
2022/09/04 08:35:09;;;;;;;5.40;5.00;;;;;;;;;;4987923;28;1706701;-46
2022/09/04 08:37:47;;;;;;;6.15;5.55;;;;;;;;;;5048879;28;24408;-50
2022/09/04 08:40:31;;;;;;;6.07;5.68;;;;;;;;;;5048905;28;24429;-46
2022/09/04 08:43:15;;;;;;;5.90;5.50;;;;;;;;;;5046743;28;25048;-46
2022/09/04 08:45:58;;;;;;;5.38;4.97;;;;;;;;;;5048841;28;24387;-46
2022/09/04 08:48:29;;;;;;;6.43;5.97;;;;;;;;;;5048521;28;24981;-52
2022/09/04 08:51:14;;;;;;;6.55;6.05;;;;;;;;;;5048801;28;24415;-50
2022/09/04 08:53:40;;;;;;;5.90;5.40;;;;;;;;;;5030326;28;24447;-48
2022/09/04 08:56:40;;;;;;;6.13;5.63;;;;;;;;;;5028813;28;24431;-48
2022/09/04 08:59:05;;;;;;;5.97;5.47;;;;;;;;;;5026056;28;24403;-47
2022/09/04 09:01:54;;;;;;;5.75;5.35;;;;;;;;;;5027975;28;24416;-46
2022/09/04 09:04:25;;;;;;;6.18;5.78;;;;;;;;;;5028472;28;24408;-47
2022/09/04 09:07:02;;;;;;;6.95;6.35;;;;;;;;;;5028490;28;24411;-48
2022/09/04 09:09:53;;;;;;;6.43;5.82;;;;;;;;;;5028431;28;24400;-47
2022/09/04 09:12:37;;;;;;;5.68;5.28;;;;;;;;;;5027878;28;24408;-49
2022/09/04 09:15:17;;;;;;;5.90;5.50;;;;;;;;;;5028324;28;25039;-47
2022/09/04 09:18:01;;;;;;;6.13;5.63;;;;;;;;;;5028369;28;24403;-48
2022/09/04 09:20:28;;;;;;;6.20;5.80;;;;;;;;;;5028511;28;24446;-48
2022/09/04 09:23:12;;;;;;;5.60;5.20;;;;;;;;;;5028039;28;24384;-48
2022/09/04 09:25:57;;;;;;;5.50;5.10;;;;;;;;;;5048248;28;24411;-49
2022/09/04 09:28:45;;;;;;;5.50;5.10;;;;;;;;;;5036310;28;24427;-47
2022/09/04 09:31:16;;;;;;;5.47;5.07;;;;;;;;;;5024974;28;24979;-48
2022/09/04 09:34:01;;;;;;;5.00;4.70;;;;;;;;;;5030461;28;24435;-48
2022/09/04 09:36:45;;;;;;;5.68;5.20;;;;;;;;;;5025879;28;24411;-46
2022/09/04 09:39:32;;;;;;;5.55;5.10;;;;;;;;;;5027627;28;24743;-48
2022/09/04 09:41:58;;;;;;;5.70;5.30;;;;;;;;;;5031068;28;24460;-46
2022/09/04 09:44:42;;;;;;;5.30;4.80;;;;;;;;;;5045559;28;24841;-47
2022/09/04 09:47:30;;;;;;;5.10;4.70;;;;;;;;;;5047559;28;24403;-46
2022/09/04 09:49:58;;;;;;;5.75;5.35;;;;;;;;;;5047249;28;24441;-47
2022/09/04 09:52:26;;;;;;;5.20;4.80;;;;;;;;;;5047582;28;24391;-49
2022/09/04 09:54:54;;;;;;;5.22;4.82;;;;;;;;;;5038902;28;24511;-46
2022/09/04 09:57:38;;;;;;;4.82;4.53;;;;;;;;;;5027126;28;24427;-47
2022/09/04 10:00:12;;;;;;;6.00;5.50;;;;;;;;;;5026967;28;24395;-47
2022/09/04 10:02:56;;;;;;;5.53;5.13;;;;;;;;;;5026577;28;24479;-48
2022/09/04 10:05:30;;;;;;;6.00;5.60;;;;;;;;;;5029773;28;24952;-48
2022/09/04 10:08:09;;;;;;;5.60;5.20;;;;;;;;;;5046087;28;24388;-47
2022/09/04 10:10:50;;;;;;;5.68;5.28;;;;;;;;;;5047146;28;24986;-46
2022/09/04 10:13:28;;;;;;;5.45;5.05;;;;;;;;;;5045629;28;24418;-48
2022/09/04 10:15:53;;;;;;;5.25;4.85;;;;;;;;;;5046109;28;24422;-47
2022/09/04 10:18:37;;;;;;;5.10;4.70;;;;;;;;;;5047042;28;24400;-47
2022/09/04 10:21:11;;;;;;;5.43;5.03;;;;;;;;;;5047363;28;24399;-47
2022/09/04 10:23:55;;;;;;;5.25;4.88;;;;;;;;;;5047230;28;25176;-47
2022/09/04 10:26:23;;;;;;;5.10;4.65;;;;;;;;;;5037189;28;24486;-47
2022/09/04 10:29:09;;;;;;;4.70;4.40;;;;;;;;;;5026954;28;24404;-48
2022/09/04 10:31:47;;;;;;;5.40;5.00;;;;;;;;;;5027506;28;24391;-48
2022/09/04 10:34:22;;;;;;;4.85;4.55;;;;;;;;;;5026899;28;24534;-49
2022/09/04 10:37:06;;;;;;;5.40;5.00;;;;;;;;;;5035091;28;24431;-48
2022/09/04 10:43:08;;;;;;;4.80;4.40;;;;;;;;;;5046745;28;24438;-47
2022/09/04 10:45:39;;;;;;;4.80;4.50;;;;;;;;;;5035596;28;24486;-47
2022/09/04 10:48:28;;;;;;;4.30;4.00;;;;;;;;;;5027169;28;24435;-48
2022/09/04 10:51:04;;;;;;;5.70;5.20;;;;;;;;;;5027203;28;24392;-47
2022/09/04 10:53:29;;;;;;;5.30;4.80;;;;;;;;;;5026948;28;24976;-48
2022/09/04 10:56:04;;;;;;;4.90;4.60;;;;;;;;;;5027763;28;24444;-48
2022/09/04 10:58:45;;;;;;;4.80;4.50;;;;;;;;;;5044402;28;24468;-48
2022/09/04 11:01:10;;;;;;;5.35;4.95;;;;;;;;;;5045125;28;24442;-47
2022/09/04 11:03:47;;;;;;;5.05;4.65;;;;;;;;;;5032333;28;24415;-47
2022/09/04 11:06:25;;;;;;;5.05;4.65;;;;;;;;;;5041656;28;25059;-47
2022/09/04 11:09:01;;;;;;;5.20;4.80;;;;;;;;;;5038380;28;24450;-46
2022/09/04 11:11:39;;;;;;;4.90;4.60;;;;;;;;;;5036395;28;24427;-47
2022/09/04 11:14:05;;;;;;;5.03;4.63;;;;;;;;;;5039848;28;24510;-47
2022/09/04 11:16:50;;;;;;;4.82;4.43;;;;;;;;;;5044960;28;24642;-46
2022/09/04 11:19:51;;;;;;;5.00;4.60;;;;;;;;;;5040591;28;24428;-46
2022/09/04 11:22:40;;;;;;;5.15;4.75;;;;;;;;;;5025967;28;24482;-47
2022/09/04 11:25:12;;;;;;;4.57;4.28;;;;;;;;;;5027852;28;24428;-47
2022/09/04 11:27:48;;;;;;;4.83;4.53;;;;;;;;;;5037822;28;24423;-48
2022/09/04 11:30:29;;;;;;;4.55;4.25;;;;;;;;;;5034980;28;24449;-46
2022/09/04 11:33:14;;;;;;;4.10;3.90;;;;;;;;;;5044176;28;24434;-46
2022/09/04 11:35:58;;;;;;;4.40;4.10;;;;;;;;;;5042639;28;24435;-46
2022/09/04 11:38:27;;;;;;;4.20;3.90;;;;;;;;;;5038092;28;24428;-47
2022/09/04 11:41:08;;;;;;;4.25;4.05;;;;;;;;;;5042008;28;24965;-47
2022/09/04 11:43:53;;;;;;;4.32;4.10;;;;;;;;;;5035640;28;24478;-47
2022/09/04 11:46:28;;;;;;;4.07;3.80;;;;;;;;;;5038244;28;25093;-47
2022/09/04 11:49:12;;;;;;;4.20;3.90;;;;;;;;;;5048184;28;24435;-46
2022/09/04 11:52:07;;;;;;;5.20;4.80;;;;;;;;;;5033240;28;24432;-47
2022/09/04 11:54:35;;;;;;;4.45;4.10;;;;;;;;;;5049616;28;24439;-48
2022/09/04 11:57:13;;;;;;;4.70;4.40;;;;;;;;;;5052242;28;24901;-47
2022/09/04 11:59:49;;;;;;;4.30;4.00;;;;;;;;;;5038637;28;24858;-47
2022/09/04 12:02:27;;;;;;;4.70;4.40;;;;;;;;;;5040037;28;25003;-48
2022/09/04 12:04:52;;;;;;;4.43;4.13;;;;;;;;;;5051892;28;24435;-47
2022/09/04 12:07:17;;;;;;;4.70;4.40;;;;;;;;;;5042813;28;24431;-46
2022/09/04 12:10:01;;;;;;;4.60;4.30;;;;;;;;;;5042966;28;24817;-47
2022/09/04 12:12:26;;;;;;;4.32;4.13;;;;;;;;;;5051168;28;24518;-48
2022/09/04 12:14:54;;;;;;;4.70;4.40;;;;;;;;;;5044651;28;24538;-46
2022/09/04 12:17:26;;;;;;;4.53;4.22;;;;;;;;;;5040897;28;24420;-46
2022/09/04 12:23:29;;;;;;;5.85;5.35;;;;;;;;;;5042769;28;24411;-46
2022/09/04 12:26:00;;;;;;;5.50;5.10;;;;;;;;;;5035083;28;24464;-47
2022/09/04 12:28:52;;;;;;;5.65;5.25;;;;;;;;;;5033144;28;24439;-47
2022/09/04 12:31:27;;;;;;;6.10;5.70;;;;;;;;;;5041169;28;24439;-46
2022/09/04 12:34:02;;;;;;;6.10;5.50;;;;;;;;;;5042217;28;24825;-46
2022/09/04 12:36:42;;;;;;;5.40;5.10;;;;;;;;;;5030979;28;25058;-47
2022/09/04 12:39:19;;;;;;;5.18;4.88;;;;;;;;;;5048081;28;24510;-47
2022/09/04 12:41:53;;;;;;;5.13;4.82;;;;;;;;;;5044442;28;24507;-47
2022/09/04 12:44:25;;;;;;;5.80;5.40;;;;;;;;;;5040389;28;24530;-47
2022/09/04 12:46:59;;;;;;;6.10;5.60;;;;;;;;;;5033866;28;24431;-47
2022/09/04 12:49:40;;;;;;;6.00;5.60;;;;;;;;;;5040122;28;24446;-51
2022/09/04 12:52:17;;;;;;;5.50;5.10;;;;;;;;;;5032141;28;24502;-48
2022/09/04 12:54:54;;;;;;;5.72;5.22;;;;;;;;;;5041884;28;24435;-48
2022/09/04 12:57:38;;;;;;;6.10;5.60;;;;;;;;;;5044281;28;24493;-47
2022/09/04 13:00:15;;;;;;;5.60;5.20;;;;;;;;;;5042031;28;24779;-47
2022/09/04 13:02:58;;;;;;;5.93;5.43;;;;;;;;;;5034423;28;24400;-47
2022/09/04 13:05:31;;;;;;;5.63;5.22;;;;;;;;;;5032957;28;24442;-47
2022/09/04 13:08:25;;;;;;;5.35;5.05;;;;;;;;;;5035185;28;24400;-48
2022/09/04 13:10:58;;;;;;;5.20;4.80;;;;;;;;;;5036495;28;24482;-47
2022/09/04 13:13:41;;;;;;;5.00;4.70;;;;;;;;;;5054882;28;24448;-47
2022/09/04 13:16:16;;;;;;;5.10;4.80;;;;;;;;;;5054164;28;24827;-47
2022/09/04 13:19:02;;;;;;;5.20;4.90;;;;;;;;;;5049120;28;24395;-46
2022/09/04 13:22:02;;;;;;;5.10;4.70;;;;;;;;;;5047037;28;24852;-46
2022/09/04 13:24:34;;;;;;;6.20;5.70;;;;;;;;;;5035313;28;24404;-48
2022/09/04 13:27:14;;;;;;;5.30;4.90;;;;;;;;;;5045735;28;24465;-47
2022/09/04 13:30:02;;;;;;;5.50;5.00;;;;;;;;;;5034059;28;24416;-48
2022/09/04 13:32:30;;;;;;;5.60;5.20;;;;;;;;;;5035542;28;24420;-48
2022/09/04 13:35:10;;;;;;;5.30;4.90;;;;;;;;;;5036704;28;24455;-47
2022/09/04 13:37:45;;;;;;;4.90;4.60;;;;;;;;;;5035754;28;24419;-48
2022/09/04 13:40:11;;;;;;;5.03;4.72;;;;;;;;;;5035440;28;24423;-48
2022/09/04 13:42:36;;;;;;;4.95;4.55;;;;;;;;;;5038478;28;24427;-48
2022/09/04 13:45:06;;;;;;;4.90;4.60;;;;;;;;;;5032469;28;24423;-48
2022/09/04 13:47:38;;;;;;;5.55;5.05;;;;;;;;;;5052379;28;24417;-47
2022/09/04 13:50:24;;;;;;;5.10;4.70;;;;;;;;;;5040032;28;24437;-47
2022/09/04 13:53:03;;;;;;;4.80;4.50;;;;;;;;;;5034535;28;24456;-48
2022/09/04 13:55:31;;;;;;;4.80;4.40;;;;;;;;;;5042990;28;24443;-47
2022/09/04 13:58:00;;;;;;;5.35;5.00;;;;;;;;;;5029470;28;24518;-48
2022/09/04 14:00:27;;;;;;;5.10;4.70;;;;;;;;;;5029323;28;24549;-48
2022/09/04 14:02:56;;;;;;;4.80;4.50;;;;;;;;;;5053099;28;24511;-46
2022/09/04 14:05:23;;;;;;;5.07;4.70;;;;;;;;;;5046160;28;24652;-47
2022/09/04 14:07:50;;;;;;;5.22;4.75;;;;;;;;;;5046146;28;25313;-47
2022/09/04 14:10:21;;;;;;;4.78;4.47;;;;;;;;;;5042084;28;24442;-47
2022/09/04 14:12:52;;;;;;;5.10;4.70;;;;;;;;;;5034000;28;24467;-46
2022/09/04 14:15:43;;;;;;;5.22;4.88;;;;;;;;;;5029153;28;24525;-48
2022/09/04 14:18:15;;;;;;;5.63;5.22;;;;;;;;;;5045479;28;24431;-47
2022/09/04 14:20:58;;;;;;;5.68;5.20;;;;;;;;;;5047388;28;24398;-47
2022/09/04 14:23:42;;;;;;;4.90;4.60;;;;;;;;;;5027282;28;24446;-48
2022/09/04 14:26:26;;;;;;;5.30;4.90;;;;;;;;;;5044811;28;24439;-48
2022/09/04 14:28:59;;;;;;;5.55;5.15;;;;;;;;;;5043031;28;24432;-48
2022/09/04 14:31:39;;;;;;;5.32;5.03;;;;;;;;;;5028489;28;24430;-48
2022/09/04 14:34:15;;;;;;;5.43;5.03;;;;;;;;;;5026541;28;24443;-46
2022/09/04 14:36:45;;;;;;;4.93;4.63;;;;;;;;;;5038756;28;24503;-48
2022/09/04 14:39:24;;;;;;;5.80;5.30;;;;;;;;;;5046632;28;24514;-47
2022/09/04 14:41:58;;;;;;;5.60;5.20;;;;;;;;;;5032197;28;24504;-47
2022/09/04 14:44:34;;;;;;;5.60;4.97;;;;;;;;;;5026811;28;24534;-47
2022/09/04 14:47:07;;;;;;;5.35;5.05;;;;;;;;;;5028374;28;24427;-48
2022/09/04 14:49:38;;;;;;;5.10;4.80;;;;;;;;;;5034756;28;24423;-47
2022/09/04 14:52:10;;;;;;;5.00;4.70;;;;;;;;;;5030499;28;24554;-48
2022/09/04 14:54:38;;;;;;;5.63;5.20;;;;;;;;;;5052253;28;24432;-48
2022/09/04 14:57:11;;;;;;;5.18;4.78;;;;;;;;;;5026727;28;24387;-47
2022/09/04 14:59:40;;;;;;;5.18;4.80;;;;;;;;;;5041684;28;24446;-47
2022/09/04 15:02:08;;;;;;;4.90;4.60;;;;;;;;;;5028886;28;24510;-46
2022/09/04 15:04:45;;;;;;;4.80;4.50;;;;;;;;;;5035586;28;24793;-47
2022/09/04 15:07:28;;;;;;;5.00;4.60;;;;;;;;;;5038165;28;25216;-47
2022/09/04 15:10:05;;;;;;;5.20;4.82;;;;;;;;;;5045139;28;25017;-47
2022/09/04 15:12:32;;;;;;;4.80;4.50;;;;;;;;;;5038088;28;24431;-47
2022/09/04 15:15:15;;;;;;;5.22;4.82;;;;;;;;;;5043271;28;24562;-47
2022/09/04 15:18:00;;;;;;;5.20;4.80;;;;;;;;;;5029827;28;24448;-46
2022/09/04 15:20:27;;;;;;;4.70;4.40;;;;;;;;;;5046679;28;25044;-47
2022/09/04 15:22:54;;;;;;;5.10;4.80;;;;;;;;;;5036029;28;24523;-47
2022/09/04 15:25:35;;;;;;;5.10;4.80;;;;;;;;;;5035695;28;24419;-47
2022/09/04 15:28:03;;;;;;;4.80;4.50;;;;;;;;;;5040530;28;24442;-48
2022/09/04 15:30:30;;;;;;;5.00;4.70;;;;;;;;;;5038417;28;24443;-46
2022/09/04 15:33:11;;;;;;;5.10;4.70;;;;;;;;;;5040081;28;24435;-47
2022/09/04 15:35:38;;;;;;;5.03;4.63;;;;;;;;;;5039844;28;24450;-47
2022/09/04 15:38:20;;;;;;;5.20;4.80;;;;;;;;;;5041509;28;24450;-48
2022/09/04 15:40:54;;;;;;;5.50;5.10;;;;;;;;;;5038583;28;24970;-48
2022/09/04 15:43:25;;;;;;;5.32;4.90;;;;;;;;;;5043219;28;24949;-47
2022/09/04 15:45:50;;;;;;;5.20;4.90;;;;;;;;;;5034062;28;24420;-47